sensor_id;sensor_type;location;lat;lon;timestamp;pressure;altitude;pressure_sealevel;temperature;humidity
250;BME280;109;19.806;-70.704;2023-02-16T00:00:26;101819.38;;;23.17;60.36
250;BME280;109;19.806;-70.704;2023-02-16T00:02:53;101824.53;;;23.23;60.27
250;BME280;109;19.806;-70.704;2023-02-16T00:07:53;101830.25;;;23.41;60.46
250;BME280;109;19.806;-70.704;2023-02-16T00:10:20;101840.16;;;23.37;60.21
250;BME280;109;19.806;-70.704;2023-02-16T00:12:47;101847.19;;;23.40;60.30
250;BME280;109;19.806;-70.704;2023-02-16T00:15:32;101838.69;;;23.27;60.33
250;BME280;109;19.806;-70.704;2023-02-16T00:18:00;101842.41;;;23.21;60.50
250;BME280;109;19.806;-70.704;2023-02-16T00:20:28;101848.66;;;23.20;60.46
250;BME280;109;19.806;-70.704;2023-02-16T00:22:57;101850.44;;;23.21;60.50
250;BME280;109;19.806;-70.704;2023-02-16T00:25:24;101856.69;;;23.20;60.57
250;BME280;109;19.806;-70.704;2023-02-16T00:27:50;101862.31;;;23.11;60.46
250;BME280;109;19.806;-70.704;2023-02-16T00:30:20;101864.78;;;23.17;60.63
250;BME280;109;19.806;-70.704;2023-02-16T00:32:48;101864.66;;;23.22;60.55
250;BME280;109;19.806;-70.704;2023-02-16T00:35:17;101873.78;;;23.15;60.81
250;BME280;109;19.806;-70.704;2023-02-16T00:37:45;101867.41;;;23.19;60.72
250;BME280;109;19.806;-70.704;2023-02-16T00:40:15;101875.00;;;23.03;60.95
250;BME280;109;19.806;-70.704;2023-02-16T00:42:43;101873.06;;;23.08;60.94
250;BME280;109;19.806;-70.704;2023-02-16T00:45:17;101872.50;;;22.95;61.09
250;BME280;109;19.806;-70.704;2023-02-16T00:47:52;101881.88;;;23.12;60.77
250;BME280;109;19.806;-70.704;2023-02-16T00:50:26;101884.06;;;22.96;61.11
250;BME280;109;19.806;-70.704;2023-02-16T00:53:00;101876.03;;;22.97;61.14
250;BME280;109;19.806;-70.704;2023-02-16T00:55:32;101887.53;;;23.01;61.42
250;BME280;109;19.806;-70.704;2023-02-16T00:58:23;101881.38;;;22.97;61.32
250;BME280;109;19.806;-70.704;2023-02-16T01:01:07;101883.19;;;22.95;61.53
250;BME280;109;19.806;-70.704;2023-02-16T01:03:40;101895.53;;;23.01;61.48
250;BME280;109;19.806;-70.704;2023-02-16T01:06:06;101893.19;;;22.89;61.45
250;BME280;109;19.806;-70.704;2023-02-16T01:09:13;101897.84;;;22.81;61.87
250;BME280;109;19.806;-70.704;2023-02-16T01:12:13;101899.06;;;22.69;61.73
250;BME280;109;19.806;-70.704;2023-02-16T01:14:51;101901.56;;;22.75;61.66
250;BME280;109;19.806;-70.704;2023-02-16T01:17:24;101899.91;;;22.71;62.15
250;BME280;109;19.806;-70.704;2023-02-16T01:19:53;101893.06;;;22.61;62.37
250;BME280;109;19.806;-70.704;2023-02-16T01:22:26;101902.00;;;22.60;62.55
250;BME280;109;19.806;-70.704;2023-02-16T01:25:06;101895.88;;;22.55;62.33
250;BME280;109;19.806;-70.704;2023-02-16T01:27:33;101908.19;;;22.60;62.65
250;BME280;109;19.806;-70.704;2023-02-16T01:30:16;101907.91;;;22.71;62.65
250;BME280;109;19.806;-70.704;2023-02-16T01:32:49;101909.69;;;22.71;62.29
250;BME280;109;19.806;-70.704;2023-02-16T01:35:27;101906.19;;;22.69;62.42
250;BME280;109;19.806;-70.704;2023-02-16T01:38:00;101906.94;;;22.74;62.52
250;BME280;109;19.806;-70.704;2023-02-16T01:40:41;101911.72;;;22.62;62.21
250;BME280;109;19.806;-70.704;2023-02-16T01:43:39;101913.25;;;22.71;62.47
250;BME280;109;19.806;-70.704;2023-02-16T01:46:18;101911.63;;;22.64;62.55
250;BME280;109;19.806;-70.704;2023-02-16T01:48:55;101911.81;;;22.58;62.71
250;BME280;109;19.806;-70.704;2023-02-16T01:51:34;101911.56;;;22.67;62.75
250;BME280;109;19.806;-70.704;2023-02-16T01:56:56;101903.28;;;22.44;62.90
250;BME280;109;19.806;-70.704;2023-02-16T02:02:27;101901.72;;;22.35;63.05
250;BME280;109;19.806;-70.704;2023-02-16T02:05:22;101892.50;;;22.48;62.97
250;BME280;109;19.806;-70.704;2023-02-16T02:08:19;101902.44;;;22.42;62.93
250;BME280;109;19.806;-70.704;2023-02-16T02:11:11;101908.50;;;22.50;62.71
250;BME280;109;19.806;-70.704;2023-02-16T02:14:21;101902.28;;;22.49;63.09
250;BME280;109;19.806;-70.704;2023-02-16T02:16:57;101908.50;;;22.50;62.95
250;BME280;109;19.806;-70.704;2023-02-16T02:22:53;101902.28;;;22.49;63.18
250;BME280;109;19.806;-70.704;2023-02-16T02:43:59;101920.44;;;22.34;63.15
250;BME280;109;19.806;-70.704;2023-02-16T02:46:35;101922.16;;;22.36;63.39
250;BME280;109;19.806;-70.704;2023-02-16T02:49:18;101917.59;;;22.41;63.36
250;BME280;109;19.806;-70.704;2023-02-16T02:51:45;101921.03;;;22.46;63.39
250;BME280;109;19.806;-70.704;2023-02-16T02:54:32;101922.06;;;22.39;63.26
250;BME280;109;19.806;-70.704;2023-02-16T02:57:43;101916.44;;;22.51;63.51
250;BME280;109;19.806;-70.704;2023-02-16T03:00:44;101928.16;;;22.46;63.34
250;BME280;109;19.806;-70.704;2023-02-16T03:03:41;101920.88;;;22.51;63.28
250;BME280;109;19.806;-70.704;2023-02-16T03:06:27;101929.91;;;22.47;63.38
250;BME280;109;19.806;-70.704;2023-02-16T03:09:13;101927.09;;;22.51;63.38
250;BME280;109;19.806;-70.704;2023-02-16T03:11:48;101919.91;;;22.55;63.41
250;BME280;109;19.806;-70.704;2023-02-16T03:14:51;101924.59;;;22.45;63.58
250;BME280;109;19.806;-70.704;2023-02-16T03:17:32;101921.16;;;22.40;63.30
250;BME280;109;19.806;-70.704;2023-02-16T03:20:32;101922.81;;;22.46;63.57
250;BME280;109;19.806;-70.704;2023-02-16T03:23:32;101920.94;;;22.49;63.47
250;BME280;109;19.806;-70.704;2023-02-16T03:26:31;101927.16;;;22.50;63.42
250;BME280;109;19.806;-70.704;2023-02-16T03:29:32;101917.59;;;22.41;63.40
250;BME280;109;19.806;-70.704;2023-02-16T03:32:01;101921.31;;;22.34;63.31
250;BME280;109;19.806;-70.704;2023-02-16T03:34:40;101917.84;;;22.30;63.32
250;BME280;109;19.806;-70.704;2023-02-16T03:37:07;101918.63;;;22.34;63.52
250;BME280;109;19.806;-70.704;2023-02-16T03:39:54;101915.16;;;22.30;63.60
250;BME280;109;19.806;-70.704;2023-02-16T03:42:51;101913.34;;;22.33;63.83
250;BME280;109;19.806;-70.704;2023-02-16T03:45:35;101909.72;;;22.35;63.36
250;BME280;109;19.806;-70.704;2023-02-16T03:48:02;101914.34;;;22.27;63.56
250;BME280;109;19.806;-70.704;2023-02-16T03:50:42;101908.25;;;22.23;63.51
250;BME280;109;19.806;-70.704;2023-02-16T03:53:09;101910.72;;;22.31;63.31
250;BME280;109;19.806;-70.704;2023-02-16T03:55:49;101910.75;;;22.29;63.34
250;BME280;109;19.806;-70.704;2023-02-16T03:58:29;101900.81;;;22.36;63.68
250;BME280;109;19.806;-70.704;2023-02-16T04:01:02;101896.38;;;22.35;63.38
250;BME280;109;19.806;-70.704;2023-02-16T04:03:43;101908.91;;;22.32;63.16
250;BME280;109;19.806;-70.704;2023-02-16T04:06:10;101900.91;;;22.32;63.41
250;BME280;109;19.806;-70.704;2023-02-16T04:08:49;101893.63;;;22.40;63.46
250;BME280;109;19.806;-70.704;2023-02-16T04:11:16;101894.56;;;22.37;63.31
250;BME280;109;19.806;-70.704;2023-02-16T04:14:13;101892.72;;;22.39;63.36
250;BME280;109;19.806;-70.704;2023-02-16T04:16:40;101882.31;;;22.28;63.71
250;BME280;109;19.806;-70.704;2023-02-16T04:19:20;101883.28;;;22.24;63.86
250;BME280;109;19.806;-70.704;2023-02-16T04:21:49;101886.09;;;22.20;63.44
250;BME280;109;19.806;-70.704;2023-02-16T04:24:29;101888.72;;;22.21;63.47
250;BME280;109;19.806;-70.704;2023-02-16T04:26:56;101880.53;;;22.29;63.38
250;BME280;109;19.806;-70.704;2023-02-16T04:29:35;101886.63;;;22.34;63.46
250;BME280;109;19.806;-70.704;2023-02-16T04:32:02;101889.28;;;22.34;63.41
250;BME280;109;19.806;-70.704;2023-02-16T04:34:42;101883.22;;;22.27;63.36
250;BME280;109;19.806;-70.704;2023-02-16T04:37:09;101885.00;;;22.27;63.48
250;BME280;109;19.806;-70.704;2023-02-16T04:39:55;101880.44;;;22.32;63.36
250;BME280;109;19.806;-70.704;2023-02-16T04:42:34;101881.22;;;22.37;63.27
250;BME280;109;19.806;-70.704;2023-02-16T04:45:14;101871.50;;;22.35;63.47
250;BME280;109;19.806;-70.704;2023-02-16T04:47:41;101879.38;;;22.41;63.24
250;BME280;109;19.806;-70.704;2023-02-16T04:50:22;101890.25;;;22.32;63.35
250;BME280;109;19.806;-70.704;2023-02-16T04:52:48;101887.50;;;22.35;63.58
250;BME280;109;19.806;-70.704;2023-02-16T04:55:35;101898.06;;;22.39;64.39
250;BME280;109;19.806;-70.704;2023-02-16T04:58:08;101878.13;;;22.18;64.44
250;BME280;109;19.806;-70.704;2023-02-16T05:00:48;101884.44;;;22.14;65.62
250;BME280;109;19.806;-70.704;2023-02-16T05:03:28;101880.78;;;22.20;65.97
250;BME280;109;19.806;-70.704;2023-02-16T05:05:55;101875.59;;;22.12;66.03
250;BME280;109;19.806;-70.704;2023-02-16T05:08:35;101869.00;;;21.93;66.53
250;BME280;109;19.806;-70.704;2023-02-16T05:11:02;101878.22;;;21.78;66.52
250;BME280;109;19.806;-70.704;2023-02-16T05:14:00;101873.84;;;21.74;66.76
250;BME280;109;19.806;-70.704;2023-02-16T05:16:51;101864.16;;;21.72;66.53
250;BME280;109;19.806;-70.704;2023-02-16T05:19:31;101867.75;;;21.69;66.85
250;BME280;109;19.806;-70.704;2023-02-16T05:21:58;101857.28;;;21.60;66.59
250;BME280;109;19.806;-70.704;2023-02-16T05:24:38;101851.16;;;21.58;66.65
250;BME280;109;19.806;-70.704;2023-02-16T05:27:07;101852.81;;;21.62;66.74
250;BME280;109;19.806;-70.704;2023-02-16T05:29:47;101848.22;;;21.69;66.68
250;BME280;109;19.806;-70.704;2023-02-16T05:32:14;101842.94;;;21.67;66.64
250;BME280;109;19.806;-70.704;2023-02-16T05:34:54;101835.81;;;21.68;66.36
250;BME280;109;19.806;-70.704;2023-02-16T05:37:21;101839.50;;;21.62;66.59
250;BME280;109;19.806;-70.704;2023-02-16T05:40:09;101837.53;;;21.70;66.78
250;BME280;109;19.806;-70.704;2023-02-16T05:42:54;101828.72;;;21.68;66.69
250;BME280;109;19.806;-70.704;2023-02-16T05:45:33;101826.88;;;21.70;66.78
250;BME280;109;19.806;-70.704;2023-02-16T05:48:00;101817.97;;;21.71;66.83
250;BME280;109;19.806;-70.704;2023-02-16T05:50:47;101834.88;;;21.70;66.57
250;BME280;109;19.806;-70.704;2023-02-16T05:53:26;101819.06;;;21.63;66.47
250;BME280;109;19.806;-70.704;2023-02-16T05:55:53;101814.50;;;21.68;66.95
250;BME280;109;19.806;-70.704;2023-02-16T05:58:33;101808.34;;;21.66;66.60
250;BME280;109;19.806;-70.704;2023-02-16T06:01:00;101805.53;;;21.72;66.82
250;BME280;109;19.806;-70.704;2023-02-16T06:03:39;101806.56;;;21.65;66.89
250;BME280;109;19.806;-70.704;2023-02-16T06:06:06;101802.88;;;21.72;66.75
250;BME280;109;19.806;-70.704;2023-02-16T06:08:46;101800.13;;;21.73;66.29
250;BME280;109;19.806;-70.704;2023-02-16T06:11:12;101802.06;;;21.68;66.45
250;BME280;109;19.806;-70.704;2023-02-16T06:14:10;101795.69;;;21.74;66.56
250;BME280;109;19.806;-70.704;2023-02-16T06:16:38;101793.91;;;21.74;66.74
250;BME280;109;19.806;-70.704;2023-02-16T06:19:19;101788.72;;;21.70;66.50
250;BME280;109;19.806;-70.704;2023-02-16T06:21:46;101790.41;;;21.72;66.53
250;BME280;109;19.806;-70.704;2023-02-16T06:24:32;101782.31;;;21.77;66.48
250;BME280;109;19.806;-70.704;2023-02-16T06:27:05;101786.78;;;21.76;66.46
250;BME280;109;19.806;-70.704;2023-02-16T06:29:46;101776.13;;;21.76;66.12
250;BME280;109;19.806;-70.704;2023-02-16T06:32:13;101779.81;;;21.71;65.99
250;BME280;109;19.806;-70.704;2023-02-16T06:34:52;101781.47;;;21.73;65.73
250;BME280;109;19.806;-70.704;2023-02-16T06:37:19;101771.66;;;21.75;65.70
250;BME280;109;19.806;-70.704;2023-02-16T06:40:06;101784.03;;;21.79;65.88
250;BME280;109;19.806;-70.704;2023-02-16T06:42:48;101767.06;;;21.83;66.00
250;BME280;109;19.806;-70.704;2023-02-16T06:45:29;101769.88;;;21.77;65.47
250;BME280;109;19.806;-70.704;2023-02-16T06:47:56;101769.84;;;21.79;65.29
250;BME280;109;19.806;-70.704;2023-02-16T06:50:36;101753.06;;;21.74;65.74
250;BME280;109;19.806;-70.704;2023-02-16T06:53:15;101756.56;;;21.77;65.89
250;BME280;109;19.806;-70.704;2023-02-16T06:55:42;101751.25;;;21.76;65.66
250;BME280;109;19.806;-70.704;2023-02-16T06:58:21;101754.72;;;21.79;65.38
250;BME280;109;19.806;-70.704;2023-02-16T07:00:48;101748.56;;;21.77;65.43
250;BME280;109;19.806;-70.704;2023-02-16T07:03:28;101747.69;;;21.77;65.29
250;BME280;109;19.806;-70.704;2023-02-16T07:05:55;101753.81;;;21.80;65.10
250;BME280;109;19.806;-70.704;2023-02-16T07:08:34;101744.84;;;21.84;65.15
250;BME280;109;19.806;-70.704;2023-02-16T07:11:02;101745.66;;;21.86;64.85
250;BME280;109;19.806;-70.704;2023-02-16T07:13:42;101740.28;;;21.88;64.92
250;BME280;109;19.806;-70.704;2023-02-16T07:16:16;101739.38;;;21.89;65.30
250;BME280;109;19.806;-70.704;2023-02-16T07:18:56;101739.44;;;21.86;64.57
250;BME280;109;19.806;-70.704;2023-02-16T07:21:23;101734.03;;;21.89;64.64
250;BME280;109;19.806;-70.704;2023-02-16T07:24:03;101741.84;;;21.97;65.03
250;BME280;109;19.806;-70.704;2023-02-16T07:26:29;101735.63;;;21.98;65.01
250;BME280;109;19.806;-70.704;2023-02-16T07:29:09;101733.84;;;21.97;64.90
250;BME280;109;19.806;-70.704;2023-02-16T07:31:36;101733.91;;;21.95;64.79
250;BME280;109;19.806;-70.704;2023-02-16T07:34:16;101726.78;;;21.96;65.22
250;BME280;109;19.806;-70.704;2023-02-16T07:36:43;101739.19;;;21.97;64.51
250;BME280;109;19.806;-70.704;2023-02-16T07:39:23;101733.94;;;21.93;64.59
250;BME280;109;19.806;-70.704;2023-02-16T07:41:49;101739.16;;;21.98;64.88
250;BME280;109;19.806;-70.704;2023-02-16T07:44:35;101738.28;;;21.98;65.12
250;BME280;109;19.806;-70.704;2023-02-16T07:47:08;101740.06;;;21.97;64.81
250;BME280;109;19.806;-70.704;2023-02-16T07:49:50;101737.41;;;21.97;65.10
250;BME280;109;19.806;-70.704;2023-02-16T07:52:16;101731.25;;;21.93;64.80
250;BME280;109;19.806;-70.704;2023-02-16T07:55:02;101735.75;;;21.91;64.95
250;BME280;109;19.806;-70.704;2023-02-16T07:57:28;101735.78;;;21.90;64.90
250;BME280;109;19.806;-70.704;2023-02-16T08:00:09;101729.81;;;21.82;64.57
250;BME280;109;19.806;-70.704;2023-02-16T08:02:39;101730.69;;;21.82;65.00
250;BME280;109;19.806;-70.704;2023-02-16T08:05:20;101716.50;;;21.80;64.45
250;BME280;109;19.806;-70.704;2023-02-16T08:07:46;101724.66;;;21.73;65.02
250;BME280;109;19.806;-70.704;2023-02-16T08:10:25;101718.66;;;21.65;64.88
250;BME280;109;19.806;-70.704;2023-02-16T08:13:05;101724.06;;;21.62;65.42
250;BME280;109;19.806;-70.704;2023-02-16T08:15:42;101719.81;;;21.54;65.14
250;BME280;109;19.806;-70.704;2023-02-16T08:18:21;101724.25;;;21.54;65.81
250;BME280;109;19.806;-70.704;2023-02-16T08:20:48;101714.38;;;21.59;65.44
250;BME280;109;19.806;-70.704;2023-02-16T08:23:28;101719.75;;;21.57;65.16
250;BME280;109;19.806;-70.704;2023-02-16T08:25:55;101713.31;;;21.65;64.85
250;BME280;109;19.806;-70.704;2023-02-16T08:28:36;101713.31;;;21.65;65.20
250;BME280;109;19.806;-70.704;2023-02-16T08:31:03;101715.81;;;21.72;64.82
250;BME280;109;19.806;-70.704;2023-02-16T08:33:45;101708.66;;;21.73;65.10
250;BME280;109;19.806;-70.704;2023-02-16T08:36:22;101708.88;;;21.65;65.38
250;BME280;109;19.806;-70.704;2023-02-16T08:39:08;101714.19;;;21.65;65.05
250;BME280;109;19.806;-70.704;2023-02-16T08:41:50;101715.22;;;21.59;65.15
250;BME280;109;19.806;-70.704;2023-02-16T08:44:30;101711.53;;;21.65;65.13
250;BME280;109;19.806;-70.704;2023-02-16T08:46:58;101715.03;;;21.67;64.79
250;BME280;109;19.806;-70.704;2023-02-16T08:49:38;101711.63;;;21.62;64.99
250;BME280;109;19.806;-70.704;2023-02-16T08:52:04;101709.81;;;21.63;64.85
250;BME280;109;19.806;-70.704;2023-02-16T08:54:44;101708.97;;;21.60;65.39
250;BME280;109;19.806;-70.704;2023-02-16T08:57:11;101705.59;;;21.55;65.25
250;BME280;109;19.806;-70.704;2023-02-16T08:59:51;101708.25;;;21.55;65.17
250;BME280;109;19.806;-70.704;2023-02-16T09:02:43;101708.97;;;21.60;64.80
250;BME280;109;19.806;-70.704;2023-02-16T09:05:24;101713.44;;;21.60;64.88
250;BME280;109;19.806;-70.704;2023-02-16T09:07:58;101714.38;;;21.59;65.07
250;BME280;109;19.806;-70.704;2023-02-16T09:10:39;101716.22;;;21.55;65.36
250;BME280;109;19.806;-70.704;2023-02-16T09:13:19;101703.88;;;21.53;65.50
250;BME280;109;19.806;-70.704;2023-02-16T09:15:45;101713.44;;;21.60;65.30
250;BME280;109;19.806;-70.704;2023-02-16T09:18:26;101711.47;;;21.68;64.82
250;BME280;109;19.806;-70.704;2023-02-16T09:20:53;101716.91;;;21.64;64.66
250;BME280;109;19.806;-70.704;2023-02-16T09:23:34;101718.72;;;21.62;65.27
250;BME280;109;19.806;-70.704;2023-02-16T09:26:00;101718.81;;;21.58;64.92
250;BME280;109;19.806;-70.704;2023-02-16T09:28:43;101726.72;;;21.62;64.94
250;BME280;109;19.806;-70.704;2023-02-16T09:31:12;101727.63;;;21.60;65.19
250;BME280;109;19.806;-70.704;2023-02-16T09:34:02;101725.75;;;21.66;64.72
250;BME280;109;19.806;-70.704;2023-02-16T09:36:36;101725.06;;;21.57;64.64
250;BME280;109;19.806;-70.704;2023-02-16T09:39:17;101732.19;;;21.57;64.94
250;BME280;109;19.806;-70.704;2023-02-16T09:41:59;101742.06;;;21.52;64.78
250;BME280;109;19.806;-70.704;2023-02-16T09:45:08;101743.03;;;21.48;65.03
250;BME280;109;19.806;-70.704;2023-02-16T09:47:45;101749.28;;;21.47;65.26
250;BME280;109;19.806;-70.704;2023-02-16T09:50:29;101738.56;;;21.50;65.21
250;BME280;109;19.806;-70.704;2023-02-16T09:53:36;101743.81;;;21.53;65.19
250;BME280;109;19.806;-70.704;2023-02-16T09:56:25;101742.00;;;21.55;65.26
250;BME280;109;19.806;-70.704;2023-02-16T10:02:33;101745.50;;;21.57;65.10
250;BME280;109;19.806;-70.704;2023-02-16T10:07:59;101755.69;;;21.40;65.22
250;BME280;109;19.806;-70.704;2023-02-16T10:11:03;101747.59;;;21.44;65.21
250;BME280;109;19.806;-70.704;2023-02-16T10:26:36;101775.91;;;21.47;65.50
250;BME280;109;19.806;-70.704;2023-02-16T10:29:20;101774.97;;;21.49;65.54
250;BME280;109;19.806;-70.704;2023-02-16T10:38:42;101781.19;;;21.50;65.42
250;BME280;109;19.806;-70.704;2023-02-16T10:41:36;101783.09;;;21.45;65.67
250;BME280;109;19.806;-70.704;2023-02-16T10:44:25;101777.66;;;21.48;65.33
250;BME280;109;19.806;-70.704;2023-02-16T10:47:04;101782.88;;;21.54;65.50
250;BME280;109;19.806;-70.704;2023-02-16T10:49:44;101781.09;;;21.53;65.34
250;BME280;109;19.806;-70.704;2023-02-16T10:52:13;101792.59;;;21.56;65.07
250;BME280;109;19.806;-70.704;2023-02-16T10:54:40;101795.34;;;21.52;65.61
250;BME280;109;19.806;-70.704;2023-02-16T10:57:24;101795.50;;;21.46;65.51
250;BME280;109;19.806;-70.704;2023-02-16T10:59:52;101797.97;;;21.53;65.13
250;BME280;109;19.806;-70.704;2023-02-16T11:04:53;101803.06;;;21.63;64.66
250;BME280;109;19.806;-70.704;2023-02-16T11:07:25;101808.44;;;21.61;64.48
250;BME280;109;19.806;-70.704;2023-02-16T11:09:55;101809.59;;;21.49;64.87
250;BME280;109;19.806;-70.704;2023-02-16T11:14:51;101809.59;;;21.49;64.86
250;BME280;109;19.806;-70.704;2023-02-16T11:17:21;101813.91;;;21.55;64.71
250;BME280;109;19.806;-70.704;2023-02-16T11:19:55;101804.84;;;21.62;64.49
250;BME280;109;19.806;-70.704;2023-02-16T11:27:57;101832.25;;;21.69;64.61
250;BME280;109;19.806;-70.704;2023-02-16T11:33:03;101840.09;;;21.73;64.51
250;BME280;109;19.806;-70.704;2023-02-16T11:35:41;101842.75;;;21.76;64.82
250;BME280;109;19.806;-70.704;2023-02-16T11:38:24;101840.09;;;21.73;64.08
250;BME280;109;19.806;-70.704;2023-02-16T11:40:52;101847.94;;;21.82;64.14
250;BME280;109;19.806;-70.704;2023-02-16T11:43:19;101848.78;;;21.84;64.33
250;BME280;109;19.806;-70.704;2023-02-16T11:46:01;101857.72;;;21.82;64.06
250;BME280;109;19.806;-70.704;2023-02-16T11:48:31;101856.63;;;21.90;64.02
250;BME280;109;19.806;-70.704;2023-02-16T11:51:06;101849.38;;;21.96;63.71
250;BME280;109;19.806;-70.704;2023-02-16T11:53:36;101859.47;;;21.83;63.95
250;BME280;109;19.806;-70.704;2023-02-16T11:58:43;101870.72;;;21.96;63.64
250;BME280;109;19.806;-70.704;2023-02-16T12:04:45;101880.28;;;22.04;62.38
250;BME280;109;19.806;-70.704;2023-02-16T12:09:59;101876.38;;;22.17;62.74
250;BME280;109;19.806;-70.704;2023-02-16T12:12:51;101880.63;;;22.24;62.13
250;BME280;109;19.806;-70.704;2023-02-16T12:15:28;101876.66;;;22.42;62.28
250;BME280;109;19.806;-70.704;2023-02-16T12:27:03;101888.28;;;22.74;61.52
250;BME280;109;19.806;-70.704;2023-02-16T12:29:52;101885.88;;;22.95;61.39
250;BME280;109;19.806;-70.704;2023-02-16T12:45:52;101896.53;;;22.95;61.15
250;BME280;109;19.806;-70.704;2023-02-16T12:51:25;101902.38;;;22.77;61.31
250;BME280;109;19.806;-70.704;2023-02-16T12:56:59;101903.56;;;23.01;61.23
250;BME280;109;19.806;-70.704;2023-02-16T13:02:32;101910.03;;;23.53;60.39
250;BME280;109;19.806;-70.704;2023-02-16T13:05:03;101908.50;;;23.74;60.07
250;BME280;109;19.806;-70.704;2023-02-16T13:07:41;101918.91;;;23.83;59.22
250;BME280;109;19.806;-70.704;2023-02-16T13:10:19;101932.97;;;23.89;59.25
250;BME280;109;19.806;-70.704;2023-02-16T13:13:17;101928.91;;;24.05;58.55
250;BME280;109;19.806;-70.704;2023-02-16T13:18:38;101926.97;;;24.37;58.82
250;BME280;109;19.806;-70.704;2023-02-16T13:26:46;101938.63;;;24.34;58.60
250;BME280;109;19.806;-70.704;2023-02-16T13:43:31;101951.97;;;24.62;58.62
250;BME280;109;19.806;-70.704;2023-02-16T13:46:04;101956.25;;;24.68;58.42
250;BME280;109;19.806;-70.704;2023-02-16T13:48:58;101955.38;;;24.67;58.79
250;BME280;109;19.806;-70.704;2023-02-16T13:51:41;101960.63;;;24.97;59.39
250;BME280;109;19.806;-70.704;2023-02-16T13:54:30;101963.22;;;24.72;59.05
250;BME280;109;19.806;-70.704;2023-02-16T13:56:57;101965.75;;;24.50;58.87
250;BME280;109;19.806;-70.704;2023-02-16T14:01:52;101964.75;;;24.54;58.99
250;BME280;109;19.806;-70.704;2023-02-16T14:23:19;101960.31;;;25.53;57.45
250;BME280;109;19.806;-70.704;2023-02-16T14:27:58;101962.41;;;25.21;57.61
250;BME280;109;19.806;-70.704;2023-02-16T14:30:29;101966.91;;;25.44;57.02
250;BME280;109;19.806;-70.704;2023-02-16T14:35:46;101966.47;;;26.01;56.26
250;BME280;109;19.806;-70.704;2023-02-16T14:38:32;101971.34;;;25.92;56.00
250;BME280;109;19.806;-70.704;2023-02-16T14:41:02;101965.47;;;26.04;56.10
250;BME280;109;19.806;-70.704;2023-02-16T14:43:38;101966.94;;;26.12;56.09
250;BME280;109;19.806;-70.704;2023-02-16T14:49:12;101970.09;;;26.22;56.55
250;BME280;109;19.806;-70.704;2023-02-16T14:52:04;101975.72;;;25.94;55.33
250;BME280;109;19.806;-70.704;2023-02-16T14:57:39;101960.88;;;26.07;55.35
250;BME280;109;19.806;-70.704;2023-02-16T15:02:58;101960.63;;;25.45;56.80
250;BME280;109;19.806;-70.704;2023-02-16T15:05:30;101956.69;;;25.77;55.82
250;BME280;109;19.806;-70.704;2023-02-16T15:08:08;101946.19;;;26.16;56.39
250;BME280;109;19.806;-70.704;2023-02-16T15:10:37;101944.38;;;26.16;56.36
250;BME280;109;19.806;-70.704;2023-02-16T15:13:04;101941.72;;;25.71;56.25
250;BME280;109;19.806;-70.704;2023-02-16T15:15:44;101939.88;;;25.50;57.04
250;BME280;109;19.806;-70.704;2023-02-16T15:18:17;101936.69;;;25.16;58.80
250;BME280;109;19.806;-70.704;2023-02-16T15:20:47;101945.97;;;24.82;61.04
250;BME280;109;19.806;-70.704;2023-02-16T15:23:22;101934.94;;;24.65;61.80
250;BME280;109;19.806;-70.704;2023-02-16T15:25:53;101928.97;;;24.57;61.41
250;BME280;109;19.806;-70.704;2023-02-16T15:28:23;101933.41;;;24.31;62.14
250;BME280;109;19.806;-70.704;2023-02-16T15:31:04;101928.34;;;24.22;64.34
250;BME280;109;19.806;-70.704;2023-02-16T15:33:37;101926.75;;;23.89;63.57
250;BME280;109;19.806;-70.704;2023-02-16T15:36:10;101935.03;;;23.50;64.76
250;BME280;109;19.806;-70.704;2023-02-16T15:38:41;101938.91;;;23.09;67.46
250;BME280;109;19.806;-70.704;2023-02-16T15:41:12;101934.88;;;22.60;68.98
250;BME280;109;19.806;-70.704;2023-02-16T15:46:30;101946.31;;;22.28;70.40
250;BME280;109;19.806;-70.704;2023-02-16T15:48:58;101952.22;;;22.43;70.26
250;BME280;109;19.806;-70.704;2023-02-16T15:51:29;101950.66;;;22.70;69.55
250;BME280;109;19.806;-70.704;2023-02-16T15:54:01;101944.34;;;22.72;68.13
250;BME280;109;19.806;-70.704;2023-02-16T15:56:33;101945.00;;;22.80;68.89
250;BME280;109;19.806;-70.704;2023-02-16T15:59:27;101946.72;;;22.83;68.51
250;BME280;109;19.806;-70.704;2023-02-16T16:04:42;101927.13;;;23.16;67.98
250;BME280;109;19.806;-70.704;2023-02-16T16:07:14;101924.41;;;23.18;67.07
250;BME280;109;19.806;-70.704;2023-02-16T16:09:43;101923.22;;;23.59;66.94
250;BME280;109;19.806;-70.704;2023-02-16T16:12:13;101920.59;;;23.56;66.49
250;BME280;109;19.806;-70.704;2023-02-16T16:14:59;101913.06;;;23.41;66.72
250;BME280;109;19.806;-70.704;2023-02-16T16:17:33;101920.97;;;23.44;67.19
250;BME280;109;19.806;-70.704;2023-02-16T16:20:26;101921.50;;;23.86;65.81
250;BME280;109;19.806;-70.704;2023-02-16T16:23:00;101910.75;;;23.87;66.07
250;BME280;109;19.806;-70.704;2023-02-16T16:28:01;101901.91;;;23.85;64.88
250;BME280;109;19.806;-70.704;2023-02-16T16:30:30;101881.88;;;23.98;65.14
250;BME280;109;19.806;-70.704;2023-02-16T16:33:03;101881.28;;;24.43;64.30
250;BME280;109;19.806;-70.704;2023-02-16T16:35:48;101885.94;;;24.88;63.54
250;BME280;109;19.806;-70.704;2023-02-16T16:40:53;101866.31;;;24.62;63.71
250;BME280;109;19.806;-70.704;2023-02-16T16:43:32;101853.84;;;24.10;64.77
250;BME280;109;19.806;-70.704;2023-02-16T16:46:23;101858.16;;;23.88;65.56
250;BME280;109;19.806;-70.704;2023-02-16T16:48:53;101850.66;;;24.25;65.56
250;BME280;109;19.806;-70.704;2023-02-16T16:54:04;101849.75;;;24.51;64.23
250;BME280;109;19.806;-70.704;2023-02-16T16:56:36;101841.63;;;24.79;63.48
250;BME280;109;19.806;-70.704;2023-02-16T16:59:03;101841.94;;;24.70;63.30
250;BME280;109;19.806;-70.704;2023-02-16T17:01:30;101834.84;;;24.94;63.14